New Chitose Airport
RJCC : now visible

Airfield :











YOU CAN JOIN US ON...

 
LOGIN :

Register | Disclaimer

   EN    FR    IT 

 









Legend :    VFR   Marginal VFR   IFR   Intensive IFR   Very Intensive IFR
Visi :
Ceiling :
>= 8 km
>= 3000ft
5 to 8 km
1000 to 3000 ft
1500m to 5 km
500 to 1000 ft
800 to 1500m
200 to 500 ft
< 800m
< 200 ft
Symbols :   Thunderstorms  Fog  Heavy snow  Heavy precipitations  Wind > 20 kt






- Airport Elevation : 82 ft
- IATA code : CTS


RJCC - New Chitose

CURRENT METAR :
  • 282030Z VRB02KT 9999 FEW001 FEW030TCU SCT120 BKN150 11/10 Q1008

EXPIRED METARs :
  • 282000Z VRB02KT 9999 VCFG FEW001 BKN170 10/10 Q1008 RMK 1ST001 7AC170 A2977 FG E
  • 281930Z VRB02KT 9999 VCFG FEW001 BKN170 10/10 Q1007 RMK 1ST001 7AC170 A2975 FG NE
  • 281900Z 31005KT 9999 VCFG FEW001 SCT100 BKN150 11/10 Q1008 RMK 1ST001 4AC100 7AC150 A2977 FG NE
  • 281830Z 30006KT 9999 FEW001 SCT100 BKN160 10/10 Q1008 RMK 1ST001 3AC100 7AC160 A2977
  • 281800Z 33008KT 9999 FEW001 BKN100 BKN180 11/10 Q1008
  • 281730Z 34008KT 9999 FEW001 BKN130 11/10 Q1008

TAF TAF RJCC
Valid from the 28 at 18:00 until the 30 at 00:00 UTC


281706Z 2818/3000 34005KT 9999 FEW008 BKN015
TEMPO 2818/2821 4000 -SHRA BR FEW004 BKN008
BECMG 2820/2822 16005KT
BECMG 2900/2902 35013KT
BECMG 2915/2918 18008KT
RJJJ FIR / Asia



MET'MAP, your aeronautical weather chart ! - Copyright ORBIFLY December 2007 - Disclaimer

ORBIFLY MET'MAP TEAM :

Programming & Development : Alexandra Zaïnal
Concept & original design : Baudouin d'Aumeries
Assistance for programming : Marc-Olivier Méhu
Technical & hardware support : Manuel Goepfert

Contact : metmap@orbifly.com




SOURCES & CREDITS :

   NOAA       Earth
Advisory